createdAt,value
2023-03-06T00:03:48.403Z,15.10
2023-03-06T00:08:50.916Z,20.50
2023-03-06T00:13:58.824Z,23.60
2023-03-06T00:19:00.583Z,35.20
2023-03-06T00:24:02.298Z,29.40
2023-03-06T00:29:04.151Z,27.60
2023-03-06T00:34:05.912Z,20.10
2023-03-06T00:39:08.184Z,18.20
2023-03-06T00:44:10.654Z,15.80
2023-03-06T00:49:15.099Z,28.70
2023-03-06T00:54:36.875Z,24.50
2023-03-06T00:59:38.575Z,19.60
2023-03-06T01:04:40.360Z,19.80
2023-03-06T01:09:42.053Z,18.50
2023-03-06T01:14:43.886Z,27.40
2023-03-06T01:19:45.577Z,17.90
2023-03-06T01:24:48.632Z,16.50
2023-03-06T01:29:50.323Z,18.70
2023-03-06T01:34:52.080Z,15.50
2023-03-06T01:39:53.762Z,21.40
2023-03-06T01:45:06.474Z,17.00
2023-03-06T01:50:11.895Z,15.00
2023-03-06T01:55:18.079Z,15.80
2023-03-06T02:00:26.034Z,14.50
2023-03-06T02:05:27.944Z,21.00
2023-03-06T02:10:30.144Z,15.80
2023-03-06T02:15:31.999Z,15.10
2023-03-06T02:20:40.290Z,16.20
2023-03-06T02:25:50.478Z,13.40
2023-03-06T02:30:54.935Z,19.70
2023-03-06T02:36:03.439Z,32.50
2023-03-06T02:41:08.251Z,20.80
2023-03-06T02:46:10.261Z,18.60
2023-03-06T02:51:12.306Z,17.10
2023-03-06T02:56:15.353Z,14.70
2023-03-06T03:01:17.765Z,13.70
2023-03-06T03:06:19.918Z,20.90
2023-03-06T03:11:21.986Z,17.70
2023-03-06T03:16:23.931Z,15.50
2023-03-06T03:21:26.126Z,16.30
2023-03-06T03:26:29.045Z,16.50
2023-03-06T03:31:35.513Z,14.10
2023-03-06T03:36:38.136Z,20.50
2023-03-06T03:41:41.332Z,16.50
2023-03-06T03:46:44.107Z,11.20
2023-03-06T03:51:50.258Z,12.10
2023-03-06T03:56:52.958Z,12.00
2023-03-06T04:01:59.460Z,11.40
2023-03-06T04:07:02.349Z,12.00
2023-03-06T04:12:04.330Z,20.60
2023-03-06T04:17:07.101Z,12.50
2023-03-06T04:22:09.172Z,10.90
2023-03-06T04:27:12.111Z,10.10
2023-03-06T04:32:14.949Z,9.90
2023-03-06T04:37:20.981Z,10.60
2023-03-06T04:42:23.168Z,10.90
2023-03-06T04:47:24.960Z,26.80
2023-03-06T04:52:26.646Z,17.20
2023-03-06T04:57:28.294Z,15.80
2023-03-06T05:02:30.302Z,17.10
2023-03-06T05:07:32.140Z,16.80
2023-03-06T05:12:38.037Z,18.80
2023-03-06T05:17:40.165Z,35.00
2023-03-06T05:22:42.418Z,22.70
2023-03-06T05:27:44.128Z,20.20
2023-03-06T05:32:45.882Z,22.40
2023-03-06T05:37:48.679Z,22.10
2023-03-06T05:47:52.359Z,31.00
2023-03-06T05:52:54.365Z,19.30
2023-03-06T05:57:56.186Z,22.10
2023-03-06T06:03:01.128Z,21.70
2023-03-06T06:08:03.142Z,20.60
2023-03-06T06:13:05.335Z,20.00
2023-03-06T06:18:07.083Z,30.40
2023-03-06T06:23:11.423Z,18.00
2023-03-06T06:28:13.159Z,20.10
2023-03-06T06:33:14.830Z,17.00
2023-03-06T06:38:16.770Z,18.10
2023-03-06T06:43:18.425Z,17.30
2023-03-06T06:48:20.204Z,17.20
2023-03-06T06:53:22.096Z,13.10
2023-03-06T06:58:23.948Z,12.60
2023-03-06T07:03:25.632Z,14.10
2023-03-06T07:08:27.934Z,13.20
2023-03-06T07:13:29.863Z,14.40
2023-03-06T07:18:31.649Z,13.60
2023-03-06T07:23:33.454Z,11.90
2023-03-06T07:28:46.290Z,13.40
2023-03-06T07:33:54.822Z,12.20
2023-03-06T07:38:56.566Z,19.50
2023-03-06T07:43:58.587Z,11.20
2023-03-06T07:49:00.302Z,9.40
2023-03-06T07:54:02.072Z,12.30
2023-03-06T07:59:03.994Z,12.30
2023-03-06T08:04:06.276Z,10.00
2023-03-06T08:09:08.144Z,8.60
2023-03-06T08:14:09.848Z,11.80
2023-03-06T08:19:11.557Z,9.60
2023-03-06T08:24:16.603Z,9.20
2023-03-06T08:29:18.723Z,8.80
2023-03-06T08:34:24.321Z,9.50
2023-03-06T08:39:26.130Z,7.80
2023-03-06T08:44:27.835Z,9.30
2023-03-06T08:49:30.133Z,9.60
2023-03-06T08:54:34.175Z,8.00
2023-03-06T08:59:37.140Z,8.80
2023-03-06T09:04:38.823Z,8.70
2023-03-06T09:09:40.797Z,8.70
2023-03-06T09:14:42.483Z,8.90
2023-03-06T09:19:44.372Z,7.20
2023-03-06T09:24:46.413Z,8.30
2023-03-06T09:29:48.968Z,8.20
2023-03-06T09:34:50.709Z,8.50
2023-03-06T09:39:52.476Z,8.20
2023-03-06T09:44:58.301Z,7.70
2023-03-06T09:50:24.366Z,9.10
2023-03-06T09:55:31.205Z,8.20
2023-03-06T10:00:44.279Z,8.10
2023-03-06T10:05:53.852Z,7.80
2023-03-06T10:11:18.508Z,6.40
2023-03-06T10:16:30.611Z,6.60
2023-03-06T10:22:00.141Z,6.50
2023-03-06T10:27:27.070Z,8.90
2023-03-06T10:32:48.564Z,4.60
2023-03-06T10:37:51.025Z,6.30
2023-03-06T10:43:05.110Z,6.70
2023-03-06T10:48:19.753Z,6.50
2023-03-06T10:53:29.017Z,5.40
2023-03-06T10:58:32.614Z,5.20
2023-03-06T11:03:36.602Z,5.50
2023-03-06T11:08:39.836Z,5.80
2023-03-06T11:13:43.756Z,4.10
2023-03-06T11:24:14.283Z,6.50
2023-03-06T11:29:47.221Z,4.10
2023-03-06T11:34:59.785Z,5.80
2023-03-06T11:40:11.972Z,5.50
2023-03-06T11:45:37.368Z,6.30
2023-03-06T11:51:06.395Z,4.80
2023-03-06T11:56:43.720Z,5.90
2023-03-06T12:01:48.183Z,4.50
2023-03-06T12:07:31.802Z,5.00
2023-03-06T12:13:12.522Z,5.90
2023-03-06T12:18:41.499Z,5.90
2023-03-06T12:24:02.479Z,5.30
2023-03-06T12:30:01.887Z,4.20
2023-03-06T12:35:35.665Z,3.50
2023-03-06T12:40:55.585Z,7.00
2023-03-06T12:46:03.586Z,4.30
2023-03-06T12:51:07.480Z,4.90
2023-03-06T12:56:13.414Z,4.10
2023-03-06T13:01:52.590Z,3.80
2023-03-06T13:07:22.788Z,4.40
2023-03-06T13:12:36.398Z,4.40
2023-03-06T13:17:38.714Z,2.80
2023-03-06T13:22:42.619Z,4.20
2023-03-06T13:27:53.354Z,3.50
2023-03-06T13:32:56.144Z,3.70
2023-03-06T13:38:00.976Z,3.70
2023-03-06T13:43:15.754Z,4.20
2023-03-06T13:48:43.073Z,4.20
2023-03-06T13:54:04.120Z,3.40
2023-03-06T13:59:31.967Z,5.30
2023-03-06T14:04:46.197Z,3.70
2023-03-06T14:09:56.108Z,4.30
2023-03-06T14:15:12.232Z,4.80
2023-03-06T14:20:17.669Z,6.20
2023-03-06T14:25:31.406Z,5.60
2023-03-06T14:30:33.427Z,5.00
2023-03-06T14:35:35.187Z,4.60
2023-03-06T14:40:44.975Z,4.30
2023-03-06T14:45:57.775Z,4.70
2023-03-06T14:50:59.473Z,4.10
2023-03-06T14:56:06.043Z,4.00
2023-03-06T15:01:16.092Z,4.10
2023-03-06T15:06:35.805Z,4.10
2023-03-06T15:12:04.915Z,4.60
2023-03-06T15:17:19.201Z,4.10
2023-03-06T15:22:25.346Z,5.60
2023-03-06T15:27:30.496Z,5.60
2023-03-06T15:32:34.867Z,5.50
2023-03-06T15:37:36.581Z,6.10
2023-03-06T15:42:38.287Z,6.50
2023-03-06T15:47:39.945Z,6.80
2023-03-06T15:52:41.825Z,7.70
2023-03-06T15:57:56.985Z,6.70
2023-03-06T16:02:59.051Z,8.00
2023-03-06T16:08:00.727Z,7.10
2023-03-06T16:13:06.688Z,6.30
2023-03-06T16:18:11.686Z,8.00
2023-03-06T16:23:15.041Z,8.70
2023-03-06T16:28:17.017Z,8.80
2023-03-06T16:33:18.693Z,9.70
2023-03-06T16:38:20.355Z,10.40
2023-03-06T16:43:22.079Z,8.80
2023-03-06T16:48:23.844Z,8.20
2023-03-06T16:53:25.750Z,9.00
2023-03-06T16:58:29.938Z,6.60
2023-03-06T17:03:31.629Z,7.40
2023-03-06T17:08:33.324Z,6.80
2023-03-06T17:13:35.087Z,10.50
2023-03-06T17:18:36.797Z,11.20
2023-03-06T17:23:38.752Z,9.50
2023-03-06T17:28:41.656Z,5.90
2023-03-06T17:33:44.005Z,6.90
2023-03-06T17:38:46.026Z,8.00
2023-03-06T17:43:47.797Z,8.30
2023-03-06T17:48:49.528Z,7.20
2023-03-06T17:53:52.254Z,10.00
2023-03-06T17:58:54.058Z,11.00
2023-03-06T18:03:56.443Z,13.00
2023-03-06T18:08:58.474Z,11.80
2023-03-06T18:14:00.196Z,9.90
2023-03-06T18:19:02.293Z,9.70
2023-03-06T18:24:04.161Z,11.70
2023-03-06T18:29:06.056Z,11.80
2023-03-06T18:34:10.990Z,11.60
2023-03-06T18:39:14.035Z,15.40
2023-03-06T18:44:17.623Z,12.90
2023-03-06T18:49:19.509Z,12.30
2023-03-06T18:54:21.584Z,8.70
2023-03-06T18:59:23.708Z,14.00
2023-03-06T19:04:26.165Z,14.00
2023-03-06T19:09:28.047Z,17.00
2023-03-06T19:14:30.203Z,14.00
2023-03-06T19:19:32.078Z,14.00
2023-03-06T19:24:34.151Z,11.10
2023-03-06T19:29:36.282Z,11.00
2023-03-06T19:34:37.960Z,12.70
2023-03-06T19:39:39.686Z,12.80
2023-03-06T19:44:41.498Z,13.20
2023-03-06T19:49:43.507Z,17.70
2023-03-06T19:54:47.225Z,15.10
2023-03-06T19:59:51.365Z,14.00
2023-03-06T20:04:54.567Z,14.60
2023-03-06T20:10:00.414Z,11.00
2023-03-06T20:15:03.714Z,13.20
2023-03-06T20:20:06.098Z,11.20
2023-03-06T20:25:10.685Z,11.50
2023-03-06T20:35:14.255Z,8.40
2023-03-06T20:40:16.036Z,8.80
2023-03-06T20:45:17.803Z,11.70
2023-03-06T20:50:19.457Z,11.10
2023-03-06T20:55:21.363Z,9.50
2023-03-06T21:00:23.026Z,10.30
2023-03-06T21:05:24.738Z,8.40
2023-03-06T21:10:26.509Z,9.50
2023-03-06T21:15:30.054Z,8.30
2023-03-06T21:20:33.686Z,11.80
2023-03-06T21:25:35.451Z,10.10
2023-03-06T21:30:37.170Z,9.30
2023-03-06T21:35:41.400Z,9.00
2023-03-06T21:40:44.679Z,10.70
2023-03-06T21:45:48.061Z,12.10
2023-03-06T21:50:49.748Z,17.00
2023-03-06T21:55:51.491Z,13.30
2023-03-06T22:00:53.712Z,12.00
2023-03-06T22:05:56.669Z,12.40
2023-03-06T22:10:59.056Z,12.80
2023-03-06T22:16:07.793Z,14.40
2023-03-06T22:21:12.199Z,25.80
2023-03-06T22:26:15.440Z,19.30
2023-03-06T22:31:26.307Z,18.20
2023-03-06T22:36:32.718Z,21.20
2023-03-06T22:41:35.620Z,16.40
2023-03-06T22:46:57.839Z,20.70
2023-03-06T22:52:19.686Z,20.50
2023-03-06T22:57:21.659Z,17.70
2023-03-06T23:02:23.535Z,17.50
2023-03-06T23:07:25.330Z,21.00
2023-03-06T23:12:35.643Z,17.20
2023-03-06T23:17:57.020Z,18.20
2023-03-06T23:23:18.099Z,21.00
2023-03-06T23:28:20.118Z,20.00
2023-03-06T23:33:22.467Z,17.30
2023-03-06T23:38:24.143Z,17.10
2023-03-06T23:43:25.874Z,16.20
2023-03-06T23:48:27.883Z,14.40
2023-03-06T23:53:29.580Z,15.30
2023-03-06T23:58:31.834Z,15.00
